createdAt,value
2022-10-05T00:00:29.052Z,1002.76
2022-10-05T00:01:29.135Z,1002.78
2022-10-05T00:02:29.069Z,1002.77
2022-10-05T00:03:29.034Z,1002.72
2022-10-05T00:04:29.034Z,1002.72
2022-10-05T00:05:29.054Z,1002.71
2022-10-05T00:06:29.004Z,1002.68
2022-10-05T00:07:29.025Z,1002.73
2022-10-05T00:08:28.983Z,1002.60
2022-10-05T00:09:28.986Z,1002.66
2022-10-05T00:10:28.978Z,1002.64
2022-10-05T00:11:28.967Z,1002.59
2022-10-05T00:12:28.985Z,1002.64
2022-10-05T00:13:28.947Z,1002.60
2022-10-05T00:14:28.937Z,1002.66
2022-10-05T00:15:28.928Z,1002.68
2022-10-05T00:16:28.951Z,1002.58
2022-10-05T00:17:28.939Z,1002.58
2022-10-05T00:18:28.905Z,1002.61
2022-10-05T00:19:28.894Z,1002.63
2022-10-05T00:20:28.897Z,1002.66
2022-10-05T00:21:28.897Z,1002.72
2022-10-05T00:22:28.900Z,1002.77
2022-10-05T00:23:28.857Z,1002.69
2022-10-05T00:24:28.849Z,1002.65
2022-10-05T00:25:28.833Z,1002.65
2022-10-05T00:26:28.825Z,1002.61
2022-10-05T00:27:28.853Z,1002.60
2022-10-05T00:28:28.866Z,1002.62
2022-10-05T00:29:28.803Z,1002.60
2022-10-05T00:30:28.801Z,1002.61
2022-10-05T00:31:28.812Z,1002.63
2022-10-05T00:32:28.810Z,1002.65
2022-10-05T00:33:28.781Z,1002.61
2022-10-05T00:34:28.773Z,1002.60
2022-10-05T00:35:28.764Z,1002.60
2022-10-05T00:36:28.753Z,1002.58
2022-10-05T00:37:28.785Z,1002.64
2022-10-05T00:38:28.731Z,1002.58
2022-10-05T00:39:28.728Z,1002.60
2022-10-05T00:40:28.730Z,1002.54
2022-10-05T00:41:28.711Z,1002.56
2022-10-05T00:42:28.735Z,1002.50
2022-10-05T00:43:28.693Z,1002.51
2022-10-05T00:44:28.690Z,1002.47
2022-10-05T00:45:28.764Z,1002.48
2022-10-05T00:46:28.670Z,1002.50
2022-10-05T00:47:28.687Z,1002.41
2022-10-05T00:48:28.662Z,1002.43
2022-10-05T00:49:28.640Z,1002.42
2022-10-05T00:50:28.641Z,1002.41
2022-10-05T00:51:28.627Z,1002.38
2022-10-05T00:52:28.648Z,1002.34
2022-10-05T00:53:28.611Z,1002.35
2022-10-05T00:54:28.604Z,1002.35
2022-10-05T00:55:28.594Z,1002.40
2022-10-05T00:56:28.587Z,1002.41
2022-10-05T00:57:28.617Z,1002.33
2022-10-05T00:58:28.573Z,1002.35
2022-10-05T00:59:28.567Z,1002.39
2022-10-05T01:00:28.552Z,1002.37
2022-10-05T01:01:28.667Z,1002.38
2022-10-05T01:02:31.876Z,1002.43
2022-10-05T01:03:29.549Z,1002.38
2022-10-05T01:04:28.525Z,1002.40
2022-10-05T01:05:28.514Z,1002.41
2022-10-05T01:06:28.500Z,1002.41
2022-10-05T01:07:28.486Z,1002.43
2022-10-05T01:08:28.521Z,1002.37
2022-10-05T01:09:28.496Z,1002.38
2022-10-05T01:10:28.475Z,1002.41
2022-10-05T01:11:28.457Z,1002.41
2022-10-05T01:12:28.454Z,1002.39
2022-10-05T01:13:28.463Z,1002.39
2022-10-05T01:14:29.448Z,1002.37
2022-10-05T01:15:28.435Z,1002.37
2022-10-05T01:16:28.457Z,1002.38
2022-10-05T01:17:28.407Z,1002.38
2022-10-05T01:18:28.428Z,1002.39
2022-10-05T01:19:28.392Z,1002.38
2022-10-05T01:20:28.383Z,1002.41
2022-10-05T01:21:28.373Z,1002.37
2022-10-05T01:22:28.357Z,1002.35
2022-10-05T01:23:28.389Z,1002.37
2022-10-05T01:24:28.346Z,1002.32
2022-10-05T01:25:28.336Z,1002.43
2022-10-05T01:26:28.323Z,1002.44
2022-10-05T01:27:28.321Z,1002.46
2022-10-05T01:28:28.457Z,1002.46
2022-10-05T01:29:28.346Z,1002.51
2022-10-05T01:30:28.292Z,1002.49
2022-10-05T01:31:28.381Z,1002.46
2022-10-05T01:32:28.285Z,1002.49
2022-10-05T01:33:28.272Z,1002.49
2022-10-05T01:34:28.292Z,1002.50
2022-10-05T01:35:28.262Z,1002.52
2022-10-05T01:36:28.245Z,1002.49
2022-10-05T01:37:28.267Z,1002.55
2022-10-05T01:38:28.265Z,1002.55
2022-10-05T01:39:28.228Z,1002.54
2022-10-05T01:40:28.214Z,1002.56
2022-10-05T01:41:28.198Z,1002.50
2022-10-05T01:42:28.194Z,1002.48
2022-10-05T01:43:28.213Z,1002.54
2022-10-05T01:44:28.183Z,1002.51
2022-10-05T01:45:28.217Z,1002.44
2022-10-05T01:46:28.164Z,1002.47
2022-10-05T01:47:28.163Z,1002.52
2022-10-05T01:48:28.181Z,1002.48
2022-10-05T01:49:28.145Z,1002.49
2022-10-05T01:50:28.134Z,1002.46
2022-10-05T01:51:28.130Z,1002.43
2022-10-05T01:52:28.113Z,1002.32
2022-10-05T01:53:28.148Z,1002.35
2022-10-05T01:54:28.115Z,1002.39
2022-10-05T01:55:28.087Z,1002.28
2022-10-05T01:56:28.080Z,1002.31
2022-10-05T01:57:28.076Z,1002.29
2022-10-05T01:58:28.097Z,1002.24
2022-10-05T01:59:28.061Z,1002.17
2022-10-05T02:00:28.048Z,1002.14
2022-10-05T02:01:28.095Z,1002.08
2022-10-05T02:02:28.076Z,1002.11
2022-10-05T02:03:28.067Z,1001.98
2022-10-05T02:04:59.882Z,1002.02
2022-10-05T02:05:30.015Z,1002.01
2022-10-05T02:06:28.007Z,1002.01
2022-10-05T02:07:27.998Z,1002.00
2022-10-05T02:08:28.016Z,1001.91
2022-10-05T02:09:27.982Z,1001.87
2022-10-05T02:10:27.968Z,1001.87
2022-10-05T02:11:27.970Z,1001.87
2022-10-05T02:12:27.950Z,1001.88
2022-10-05T02:13:27.977Z,1001.91
2022-10-05T02:14:27.937Z,1001.88
2022-10-05T02:15:27.931Z,1001.90
2022-10-05T02:16:27.920Z,1001.80
2022-10-05T02:17:27.938Z,1001.83
2022-10-05T02:18:27.931Z,1001.89
2022-10-05T02:19:27.890Z,1001.79
2022-10-05T02:20:27.881Z,1001.83
2022-10-05T02:21:27.885Z,1001.80
2022-10-05T02:22:27.859Z,1001.76
2022-10-05T02:23:27.876Z,1001.78
2022-10-05T02:24:28.873Z,1001.82
2022-10-05T02:25:27.834Z,1001.80
2022-10-05T02:26:27.836Z,1001.79
2022-10-05T02:27:27.821Z,1001.78
2022-10-05T02:28:27.912Z,1001.81
2022-10-05T02:29:27.803Z,1001.78
2022-10-05T02:30:27.794Z,1001.81
2022-10-05T02:31:27.832Z,1001.80
2022-10-05T02:32:27.776Z,1001.84
2022-10-05T02:33:27.794Z,1001.83
2022-10-05T02:34:27.767Z,1001.82
2022-10-05T02:35:27.753Z,1001.90
2022-10-05T02:36:27.743Z,1001.90
2022-10-05T02:37:27.744Z,1001.90
2022-10-05T02:38:27.771Z,1002.00
2022-10-05T02:39:27.721Z,1001.96
2022-10-05T02:40:27.708Z,1002.01
2022-10-05T02:41:27.702Z,1002.00
2022-10-05T02:42:27.691Z,1001.98
2022-10-05T02:43:27.711Z,1002.05
2022-10-05T02:44:27.680Z,1002.04
2022-10-05T02:45:27.666Z,1002.00
2022-10-05T02:46:28.655Z,1002.01
2022-10-05T02:47:27.657Z,1002.11
2022-10-05T02:48:27.670Z,1002.11
2022-10-05T02:49:27.652Z,1002.12
2022-10-05T02:50:27.634Z,1002.09
2022-10-05T02:51:27.635Z,1002.03
2022-10-05T02:52:27.637Z,1002.03
2022-10-05T02:53:27.635Z,1002.07
2022-10-05T02:54:27.595Z,1002.13
2022-10-05T02:55:27.594Z,1002.11
2022-10-05T02:56:27.574Z,1002.13
2022-10-05T02:57:27.577Z,1002.12
2022-10-05T02:58:27.603Z,1002.07
2022-10-05T02:59:27.555Z,1002.10
2022-10-05T03:00:27.542Z,1002.18
2022-10-05T03:01:27.598Z,1002.18
2022-10-05T03:02:27.601Z,1002.14
2022-10-05T03:03:27.549Z,1002.14
2022-10-05T03:04:27.520Z,1002.14
2022-10-05T03:05:27.504Z,1002.16
2022-10-05T03:06:27.500Z,1002.14
2022-10-05T03:07:27.495Z,1002.12
2022-10-05T03:08:27.511Z,1002.07
2022-10-05T03:09:27.477Z,1002.13
2022-10-05T03:10:27.466Z,1002.12
2022-10-05T03:11:27.468Z,1002.09
2022-10-05T03:12:27.452Z,1002.17
2022-10-05T03:13:27.471Z,1002.10
2022-10-05T03:14:27.429Z,1002.09
2022-10-05T03:15:27.418Z,1002.14
2022-10-05T03:16:27.498Z,1002.13
2022-10-05T03:17:27.409Z,1002.10
2022-10-05T03:18:30.591Z,1002.09
2022-10-05T03:19:28.383Z,1002.09
2022-10-05T03:20:27.381Z,1002.12
2022-10-05T03:21:27.376Z,1002.12
2022-10-05T03:22:27.364Z,1002.11
2022-10-05T03:23:27.396Z,1002.02
2022-10-05T03:24:27.353Z,1002.06
2022-10-05T03:25:27.346Z,1002.02
2022-10-05T03:26:27.327Z,1002.09
2022-10-05T03:27:27.322Z,1002.06
2022-10-05T03:28:27.367Z,1002.06
2022-10-05T03:29:27.334Z,1002.11
2022-10-05T03:30:27.290Z,1002.16
2022-10-05T03:31:27.334Z,1002.14
2022-10-05T03:32:27.285Z,1002.08
2022-10-05T03:33:27.279Z,1002.07
2022-10-05T03:34:27.293Z,1002.07
2022-10-05T03:35:27.251Z,1002.02
2022-10-05T03:36:27.245Z,1001.98
2022-10-05T03:37:27.234Z,1002.00
2022-10-05T03:38:27.226Z,1001.97
2022-10-05T03:39:27.249Z,1001.95
2022-10-05T03:40:27.210Z,1001.92
2022-10-05T03:41:27.194Z,1001.94
2022-10-05T03:42:28.200Z,1001.97
2022-10-05T03:43:27.193Z,1002.00
2022-10-05T03:44:27.212Z,1001.95
2022-10-05T03:45:27.180Z,1001.97
2022-10-05T03:46:27.195Z,1001.86
2022-10-05T03:47:27.174Z,1001.88
2022-10-05T03:48:27.152Z,1001.85
2022-10-05T03:49:27.172Z,1001.92
2022-10-05T03:50:27.136Z,1001.87
2022-10-05T03:51:27.121Z,1001.91
2022-10-05T03:52:27.112Z,1001.90
2022-10-05T03:53:27.100Z,1001.87
2022-10-05T03:54:27.121Z,1001.81
2022-10-05T03:55:27.082Z,1001.82
2022-10-05T03:56:27.075Z,1001.74
2022-10-05T03:57:27.070Z,1001.75
2022-10-05T03:58:27.056Z,1001.71
2022-10-05T03:59:32.274Z,1001.73
2022-10-05T04:00:29.038Z,1001.74
2022-10-05T04:01:27.095Z,1001.72
2022-10-05T04:02:27.062Z,1001.75
2022-10-05T04:03:27.022Z,1001.70
2022-10-05T04:04:27.099Z,1001.71
2022-10-05T04:05:27.005Z,1001.64
2022-10-05T04:06:26.988Z,1001.70
2022-10-05T04:07:26.974Z,1001.60
2022-10-05T04:08:26.968Z,1001.72
2022-10-05T04:09:26.994Z,1001.69
2022-10-05T04:10:27.028Z,1001.70
2022-10-05T04:11:26.952Z,1001.77
2022-10-05T04:12:26.939Z,1001.70
2022-10-05T04:13:26.929Z,1001.67
2022-10-05T04:14:26.952Z,1001.81
2022-10-05T04:15:26.915Z,1001.77
2022-10-05T04:16:26.934Z,1001.74
2022-10-05T04:17:26.899Z,1001.70
2022-10-05T04:18:26.884Z,1001.73
2022-10-05T04:19:26.909Z,1001.66
2022-10-05T04:20:26.874Z,1001.71
2022-10-05T04:21:26.876Z,1001.70
2022-10-05T04:22:26.849Z,1001.69
2022-10-05T04:23:26.840Z,1001.58
2022-10-05T04:24:26.860Z,1001.59
2022-10-05T04:25:26.822Z,1001.66
2022-10-05T04:26:26.822Z,1001.58
2022-10-05T04:27:26.799Z,1001.58
2022-10-05T04:28:31.972Z,1001.59
2022-10-05T04:29:27.832Z,1001.62
2022-10-05T04:30:26.822Z,1001.61
2022-10-05T04:31:26.803Z,1001.60
2022-10-05T04:32:26.772Z,1001.57
2022-10-05T04:33:26.755Z,1001.64
2022-10-05T04:34:26.758Z,1001.53
2022-10-05T04:35:26.773Z,1001.56
2022-10-05T04:36:26.750Z,1001.58
2022-10-05T04:37:26.724Z,1001.59
2022-10-05T04:38:26.716Z,1001.57
2022-10-05T04:39:26.707Z,1001.61
2022-10-05T04:40:26.729Z,1001.55
2022-10-05T04:41:26.709Z,1001.51
2022-10-05T04:42:26.687Z,1001.56
2022-10-05T04:43:26.676Z,1001.53
2022-10-05T04:44:26.674Z,1001.54
2022-10-05T04:45:26.679Z,1001.50
2022-10-05T04:46:26.703Z,1001.54
2022-10-05T04:47:26.651Z,1001.47
2022-10-05T04:48:26.628Z,1001.50
2022-10-05T04:49:26.628Z,1001.52
2022-10-05T04:50:26.671Z,1001.47
2022-10-05T04:51:26.608Z,1001.42
2022-10-05T04:52:26.601Z,1001.49
2022-10-05T04:53:26.591Z,1001.46
2022-10-05T04:54:26.593Z,1001.51
2022-10-05T04:55:26.606Z,1001.48
2022-10-05T04:56:26.570Z,1001.53
2022-10-05T04:57:26.566Z,1001.43
2022-10-05T04:58:26.553Z,1001.50
2022-10-05T04:59:26.545Z,1001.44
2022-10-05T05:00:26.604Z,1001.49
2022-10-05T05:01:26.550Z,1001.49
2022-10-05T05:02:26.518Z,1001.49
2022-10-05T05:03:26.549Z,1001.49
2022-10-05T05:04:26.502Z,1001.52
2022-10-05T05:05:26.524Z,1001.51
2022-10-05T05:06:26.480Z,1001.49
2022-10-05T05:07:26.476Z,1001.49
2022-10-05T05:08:26.482Z,1001.49
2022-10-05T05:09:26.456Z,1001.49
2022-10-05T05:10:26.487Z,1001.55
2022-10-05T05:11:26.440Z,1001.54
2022-10-05T05:12:26.440Z,1001.41
2022-10-05T05:13:26.429Z,1001.51
2022-10-05T05:14:26.414Z,1001.50
2022-10-05T05:15:26.476Z,1001.45
2022-10-05T05:16:26.419Z,1001.47
2022-10-05T05:17:26.393Z,1001.44
2022-10-05T05:18:26.392Z,1001.44
2022-10-05T05:19:26.372Z,1001.51
2022-10-05T05:20:26.392Z,1001.46
2022-10-05T05:21:26.361Z,1001.47
2022-10-05T05:25:16.108Z,1001.49
2022-10-05T05:26:16.153Z,1001.48
2022-10-05T05:27:16.114Z,1001.48
2022-10-05T05:28:16.162Z,1001.51
2022-10-05T05:29:16.101Z,1001.46
2022-10-05T05:30:16.098Z,1001.45
2022-10-05T05:31:16.161Z,1001.45
2022-10-05T05:32:16.083Z,1001.45
2022-10-05T05:33:16.073Z,1001.52
2022-10-05T05:34:16.069Z,1001.52
2022-10-05T05:35:16.055Z,1001.48
2022-10-05T05:36:20.768Z,1001.50
2022-10-05T05:37:17.042Z,1001.61
2022-10-05T05:38:16.037Z,1001.53
2022-10-05T05:39:17.164Z,1001.48
2022-10-05T05:40:17.157Z,1001.43
2022-10-05T05:41:17.181Z,1001.50
2022-10-05T05:42:17.142Z,1001.47
2022-10-05T05:43:17.140Z,1001.45
2022-10-05T05:44:17.138Z,1001.48
2022-10-05T05:45:17.125Z,1001.49
2022-10-05T05:46:17.206Z,1001.47
2022-10-05T05:47:17.299Z,1001.55
2022-10-05T05:48:17.096Z,1001.46
2022-10-05T05:49:17.091Z,1001.50
2022-10-05T05:50:17.087Z,1001.46
2022-10-05T05:51:17.102Z,1001.45
2022-10-05T05:52:17.088Z,1001.51
2022-10-05T05:53:17.064Z,1001.53
2022-10-05T05:54:17.048Z,1001.45
2022-10-05T05:55:17.037Z,1001.52
2022-10-05T05:56:17.060Z,1001.48
2022-10-05T05:57:17.069Z,1001.50
2022-10-05T05:58:17.012Z,1001.49
2022-10-05T05:59:17.004Z,1001.46
2022-10-05T06:00:16.996Z,1001.47
2022-10-05T06:01:32.289Z,1001.52
2022-10-05T06:02:19.069Z,1001.48
2022-10-05T06:03:17.130Z,1001.46
2022-10-05T06:04:16.964Z,1001.51
2022-10-05T06:05:16.957Z,1001.50
2022-10-05T06:06:16.969Z,1001.45
2022-10-05T06:07:16.939Z,1001.41
2022-10-05T06:08:16.929Z,1001.45
2022-10-05T06:09:16.917Z,1001.47
2022-10-05T06:10:16.914Z,1001.41
2022-10-05T06:11:16.935Z,1001.44
2022-10-05T06:12:16.900Z,1001.44
2022-10-05T06:13:16.889Z,1001.45
2022-10-05T06:14:16.886Z,1001.43
2022-10-05T06:15:16.869Z,1001.41
2022-10-05T06:16:16.943Z,1001.41
2022-10-05T06:17:16.856Z,1001.43
2022-10-05T06:18:16.843Z,1001.49
2022-10-05T06:19:16.850Z,1001.43
2022-10-05T06:20:16.830Z,1001.44
2022-10-05T06:21:16.854Z,1001.45
2022-10-05T06:22:16.812Z,1001.43
2022-10-05T06:23:16.800Z,1001.48
2022-10-05T06:24:16.807Z,1001.36
2022-10-05T06:25:16.783Z,1001.37
2022-10-05T06:26:16.777Z,1001.42
2022-10-05T06:27:16.803Z,1001.45
2022-10-05T06:28:16.838Z,1001.48
2022-10-05T06:29:16.754Z,1001.47
2022-10-05T06:30:16.747Z,1001.42
2022-10-05T06:31:16.800Z,1001.35
2022-10-05T06:32:16.740Z,1001.46
2022-10-05T06:33:16.720Z,1001.44
2022-10-05T06:34:16.714Z,1001.46
2022-10-05T06:35:16.712Z,1001.40
2022-10-05T06:36:16.731Z,1001.43
2022-10-05T06:37:16.686Z,1001.46
2022-10-05T06:38:16.673Z,1001.49
2022-10-05T06:39:16.676Z,1001.42
2022-10-05T06:40:16.665Z,1001.45
2022-10-05T06:41:16.699Z,1001.50
2022-10-05T06:42:16.651Z,1001.56
2022-10-05T06:43:16.643Z,1001.52
2022-10-05T06:44:16.632Z,1001.61
2022-10-05T06:45:17.618Z,1001.54
2022-10-05T06:46:16.687Z,1001.55
2022-10-05T06:47:16.602Z,1001.60
2022-10-05T06:48:16.596Z,1001.59
2022-10-05T06:49:16.593Z,1001.57
2022-10-05T06:50:16.578Z,1001.61
2022-10-05T06:51:16.591Z,1001.60
2022-10-05T06:52:16.593Z,1001.63
2022-10-05T06:53:16.548Z,1001.64
2022-10-05T06:54:16.548Z,1001.68
2022-10-05T06:55:16.535Z,1001.74
2022-10-05T06:56:16.528Z,1001.77
2022-10-05T06:57:16.552Z,1001.77
2022-10-05T06:58:16.526Z,1001.76
2022-10-05T06:59:16.505Z,1001.78
2022-10-05T07:00:16.492Z,1001.80
2022-10-05T07:01:16.508Z,1001.76
2022-10-05T07:02:16.543Z,1001.78
2022-10-05T07:03:16.472Z,1001.81
2022-10-05T07:04:16.457Z,1001.82
2022-10-05T07:05:16.450Z,1001.81
2022-10-05T07:06:16.442Z,1001.82
2022-10-05T07:07:16.486Z,1001.73
2022-10-05T07:08:16.417Z,1001.78
2022-10-05T07:09:16.410Z,1001.72
2022-10-05T07:10:16.403Z,1001.72
2022-10-05T07:11:16.402Z,1001.77
2022-10-05T07:12:16.434Z,1001.77
2022-10-05T07:13:16.379Z,1001.78
2022-10-05T07:14:16.378Z,1001.79
2022-10-05T07:15:16.365Z,1001.75
2022-10-05T07:16:16.496Z,1001.88
2022-10-05T07:17:16.351Z,1001.82
2022-10-05T07:18:16.342Z,1001.88
2022-10-05T07:19:16.327Z,1001.83
2022-10-05T07:20:16.320Z,1001.82
2022-10-05T07:21:16.350Z,1001.80
2022-10-05T07:22:16.316Z,1001.76
2022-10-05T07:23:16.299Z,1001.82
2022-10-05T07:24:16.293Z,1001.78
2022-10-05T07:25:16.286Z,1001.81
2022-10-05T07:26:16.314Z,1001.76
2022-10-05T07:27:16.264Z,1001.77
2022-10-05T07:28:16.336Z,1001.71
2022-10-05T07:29:16.259Z,1001.72
2022-10-05T07:30:16.333Z,1001.70
2022-10-05T07:31:16.320Z,1001.83
2022-10-05T07:32:16.229Z,1001.82
2022-10-05T07:33:16.219Z,1001.74
2022-10-05T07:34:16.245Z,1001.75
2022-10-05T07:35:16.213Z,1001.72
2022-10-05T07:36:16.239Z,1001.71
2022-10-05T07:37:16.218Z,1001.67
2022-10-05T07:38:16.178Z,1001.80
2022-10-05T07:39:16.230Z,1001.65
2022-10-05T07:40:16.163Z,1001.61
2022-10-05T07:41:16.161Z,1001.58
2022-10-05T07:42:16.173Z,1001.61
2022-10-05T07:43:16.138Z,1001.54
2022-10-05T07:44:16.133Z,1001.48
2022-10-05T07:45:16.123Z,1001.71
2022-10-05T07:46:16.216Z,1001.66
2022-10-05T07:47:16.102Z,1001.54
2022-10-05T07:48:16.094Z,1001.51
2022-10-05T07:49:16.088Z,1001.57
2022-10-05T07:50:16.126Z,1001.51
2022-10-05T07:51:16.095Z,1001.48
2022-10-05T07:52:16.056Z,1001.63
2022-10-05T07:53:16.051Z,1001.67
2022-10-05T07:54:16.047Z,1001.60
2022-10-05T07:55:16.026Z,1001.62
2022-10-05T07:56:16.043Z,1001.57
2022-10-05T07:57:16.015Z,1001.65
2022-10-05T07:58:16.010Z,1001.63
2022-10-05T07:59:15.993Z,1001.55
2022-10-05T08:00:15.987Z,1001.62
2022-10-05T08:01:16.015Z,1001.60
2022-10-05T08:02:16.115Z,1001.63
2022-10-05T08:03:16.041Z,1001.62
2022-10-05T08:04:15.954Z,1001.64
2022-10-05T08:05:15.938Z,1001.58
2022-10-05T08:06:15.962Z,1001.65
2022-10-05T08:07:16.004Z,1001.57
2022-10-05T08:08:18.179Z,1001.66
2022-10-05T08:09:15.910Z,1001.66
2022-10-05T08:10:15.908Z,1001.64
2022-10-05T08:11:15.926Z,1001.65
2022-10-05T08:12:15.889Z,1001.60
2022-10-05T08:13:15.879Z,1001.62
2022-10-05T08:14:15.866Z,1001.58
2022-10-05T08:15:15.860Z,1001.56
2022-10-05T08:16:15.958Z,1001.59
2022-10-05T08:17:15.846Z,1001.58
2022-10-05T08:18:15.833Z,1001.62
2022-10-05T08:19:15.831Z,1001.64
2022-10-05T08:20:15.818Z,1001.60
2022-10-05T08:21:15.836Z,1001.52
2022-10-05T08:22:15.801Z,1001.59
2022-10-05T08:23:15.788Z,1001.56
2022-10-05T08:24:15.782Z,1001.57
2022-10-05T08:25:15.813Z,1001.56
2022-10-05T08:26:15.875Z,1001.50
2022-10-05T08:27:15.757Z,1001.52
2022-10-05T08:28:15.812Z,1001.49
2022-10-05T08:29:15.742Z,1001.55
2022-10-05T08:30:15.734Z,1001.54
2022-10-05T08:31:15.786Z,1001.49
2022-10-05T08:32:15.729Z,1001.53
2022-10-05T08:33:15.698Z,1001.54
2022-10-05T08:34:15.712Z,1001.55
2022-10-05T08:35:15.676Z,1001.59
2022-10-05T08:36:15.708Z,1001.62
2022-10-05T08:37:15.667Z,1001.58
2022-10-05T08:38:15.664Z,1001.61
2022-10-05T08:39:15.654Z,1001.56
2022-10-05T08:40:15.646Z,1001.71
2022-10-05T08:41:15.665Z,1001.58
2022-10-05T08:42:15.624Z,1001.61
2022-10-05T08:43:15.618Z,1001.63
2022-10-05T08:44:15.621Z,1001.65
2022-10-05T08:45:15.612Z,1001.64
2022-10-05T08:46:15.666Z,1001.60
2022-10-05T08:47:15.584Z,1001.60
2022-10-05T08:48:15.583Z,1001.62
2022-10-05T08:49:15.584Z,1001.59
2022-10-05T08:50:15.564Z,1001.58
2022-10-05T08:51:15.595Z,1001.60
2022-10-05T08:52:15.549Z,1001.64
2022-10-05T08:53:15.568Z,1001.61
2022-10-05T08:54:15.526Z,1001.66
2022-10-05T08:55:15.519Z,1001.66
2022-10-05T08:56:19.837Z,1001.58
2022-10-05T08:57:17.501Z,1001.64
2022-10-05T08:58:15.497Z,1001.65
2022-10-05T08:59:15.495Z,1001.56
2022-10-05T09:00:15.475Z,1001.52
2022-10-05T09:01:15.524Z,1001.55
2022-10-05T09:02:15.497Z,1001.49
2022-10-05T09:03:15.454Z,1001.47
2022-10-05T09:04:15.441Z,1001.45
2022-10-05T09:05:15.433Z,1001.48
2022-10-05T09:06:15.451Z,1001.44
2022-10-05T09:07:15.421Z,1001.43
2022-10-05T09:08:15.408Z,1001.47
2022-10-05T09:09:15.398Z,1001.42
2022-10-05T09:10:15.394Z,1001.42
2022-10-05T09:11:15.411Z,1001.46
2022-10-05T09:12:15.375Z,1001.48
2022-10-05T09:13:15.366Z,1001.44
2022-10-05T09:14:15.371Z,1001.42
2022-10-05T09:15:25.396Z,1001.44
2022-10-05T09:16:17.469Z,1001.48
2022-10-05T09:17:15.324Z,1001.42
2022-10-05T09:18:16.367Z,1001.38
2022-10-05T09:19:15.317Z,1001.37
2022-10-05T09:20:15.314Z,1001.40
2022-10-05T09:21:15.329Z,1001.36
2022-10-05T09:22:15.293Z,1001.35
2022-10-05T09:23:15.276Z,1001.36
2022-10-05T09:24:15.283Z,1001.32
2022-10-05T09:25:15.260Z,1001.29
2022-10-05T09:26:15.319Z,1001.34
2022-10-05T09:27:15.250Z,1001.30
2022-10-05T09:28:15.267Z,1001.28
2022-10-05T09:29:15.230Z,1001.31
2022-10-05T09:30:15.213Z,1001.28
2022-10-05T09:31:16.341Z,1001.28
2022-10-05T09:32:16.592Z,1001.22
2022-10-05T09:33:16.195Z,1001.29
2022-10-05T09:34:15.188Z,1001.40
2022-10-05T09:35:15.177Z,1001.25
2022-10-05T09:36:15.205Z,1001.19
2022-10-05T09:37:15.167Z,1001.21
2022-10-05T09:38:15.150Z,1001.23
2022-10-05T09:39:15.145Z,1001.21
2022-10-05T09:40:15.134Z,1001.20
2022-10-05T09:41:15.127Z,1001.18
2022-10-05T09:42:15.145Z,1001.15
2022-10-05T09:43:15.107Z,1001.12
2022-10-05T09:44:15.101Z,1001.19
2022-10-05T09:45:19.035Z,1001.13
2022-10-05T09:46:17.099Z,1001.21
2022-10-05T09:47:15.107Z,1001.10
2022-10-05T09:48:15.071Z,1001.11
2022-10-05T09:49:15.053Z,1001.12
2022-10-05T09:50:15.047Z,1001.10
2022-10-05T09:51:15.051Z,1001.15
2022-10-05T09:52:18.786Z,1001.03
2022-10-05T09:53:16.031Z,1001.03
2022-10-05T09:54:15.032Z,1001.07
2022-10-05T09:55:15.018Z,1001.07
2022-10-05T09:56:15.067Z,1001.12
2022-10-05T09:57:15.030Z,1001.09
2022-10-05T09:58:14.991Z,1000.94
2022-10-05T09:59:14.983Z,1001.02
2022-10-05T10:00:14.979Z,1000.97
2022-10-05T10:01:32.197Z,1000.92
2022-10-05T10:02:17.244Z,1000.91
2022-10-05T10:03:14.978Z,1000.98
2022-10-05T10:04:14.936Z,1000.95
2022-10-05T10:05:14.951Z,1000.93
2022-10-05T10:06:14.934Z,1000.97
2022-10-05T10:07:14.943Z,1001.01
2022-10-05T10:08:14.899Z,1001.00
2022-10-05T10:09:14.895Z,1001.04
2022-10-05T10:10:14.888Z,1000.98
2022-10-05T10:11:14.878Z,1000.96
2022-10-05T10:12:14.897Z,1000.89
2022-10-05T10:13:14.857Z,1000.90
2022-10-05T10:14:14.855Z,1000.94
2022-10-05T10:15:14.840Z,1000.93
2022-10-05T10:16:14.933Z,1000.85
2022-10-05T10:17:14.857Z,1000.87
2022-10-05T10:18:14.818Z,1000.88
2022-10-05T10:19:14.814Z,1000.90
2022-10-05T10:20:14.802Z,1000.85
2022-10-05T10:21:14.800Z,1000.89
2022-10-05T10:22:14.815Z,1000.87
2022-10-05T10:23:14.778Z,1000.79
2022-10-05T10:24:14.768Z,1000.83
2022-10-05T10:25:14.761Z,1000.79
2022-10-05T10:26:14.752Z,1000.86
2022-10-05T10:27:14.781Z,1000.80
2022-10-05T10:28:14.821Z,1000.75
2022-10-05T10:29:14.780Z,1000.73
2022-10-05T10:30:14.729Z,1000.72
2022-10-05T10:31:14.770Z,1000.72
2022-10-05T10:32:14.731Z,1000.76
2022-10-05T10:33:14.695Z,1000.80
2022-10-05T10:34:14.685Z,1000.73
2022-10-05T10:35:14.685Z,1000.74
2022-10-05T10:36:14.671Z,1000.67
2022-10-05T10:37:14.705Z,1000.68
2022-10-05T10:38:14.655Z,1000.80
2022-10-05T10:39:14.650Z,1000.64
2022-10-05T10:40:14.639Z,1000.73
2022-10-05T10:41:14.640Z,1000.78
2022-10-05T10:42:14.652Z,1000.71
2022-10-05T10:43:14.612Z,1000.67
2022-10-05T10:44:14.615Z,1000.79
2022-10-05T10:45:14.591Z,1000.72
2022-10-05T10:46:14.642Z,1000.77
2022-10-05T10:47:14.626Z,1000.69
2022-10-05T10:48:14.573Z,1000.75
2022-10-05T10:49:14.731Z,1000.72
2022-10-05T10:50:14.547Z,1000.74
2022-10-05T10:51:14.543Z,1000.74
2022-10-05T10:52:14.559Z,1000.69
2022-10-05T10:53:14.529Z,1000.67
2022-10-05T10:54:14.520Z,1000.76
2022-10-05T10:55:14.517Z,1000.63
2022-10-05T10:56:14.505Z,1000.66
2022-10-05T10:57:14.527Z,1000.65
2022-10-05T10:58:16.250Z,1000.61
2022-10-05T10:59:15.493Z,1000.69
2022-10-05T11:00:14.489Z,1000.67
2022-10-05T11:01:14.493Z,1000.64
2022-10-05T11:02:14.566Z,1000.63
2022-10-05T11:03:14.529Z,1000.67
2022-10-05T11:04:14.432Z,1000.61
2022-10-05T11:05:14.428Z,1000.62
2022-10-05T11:06:14.409Z,1000.49
2022-10-05T11:07:14.403Z,1000.47
2022-10-05T11:08:14.433Z,1000.47
2022-10-05T11:09:14.394Z,1000.50
2022-10-05T11:10:14.384Z,1000.45
2022-10-05T11:11:14.390Z,1000.49
2022-10-05T11:12:14.373Z,1000.37
2022-10-05T11:13:14.387Z,1000.39
2022-10-05T11:14:14.358Z,1000.35
2022-10-05T11:15:14.338Z,1000.27
2022-10-05T11:16:17.183Z,1000.28
2022-10-05T11:17:15.329Z,1000.38
2022-10-05T11:18:14.363Z,1000.35
2022-10-05T11:19:14.314Z,1000.25
2022-10-05T11:20:14.304Z,1000.29
2022-10-05T11:21:14.297Z,1000.28
2022-10-05T11:22:14.332Z,1000.22
2022-10-05T11:23:14.308Z,1000.28
2022-10-05T11:24:14.270Z,1000.16
2022-10-05T11:25:14.263Z,1000.19
2022-10-05T11:26:14.270Z,1000.23
2022-10-05T11:27:14.286Z,1000.09
2022-10-05T11:28:14.383Z,1000.19
2022-10-05T11:29:14.231Z,1000.13
2022-10-05T11:30:14.232Z,1000.12
2022-10-05T11:31:14.239Z,1000.31
2022-10-05T11:32:14.203Z,1000.06
2022-10-05T11:33:14.268Z,999.98
2022-10-05T11:34:14.190Z,1000.00
2022-10-05T11:35:14.181Z,1000.36
2022-10-05T11:36:14.181Z,1000.11
2022-10-05T11:37:14.170Z,1000.10
2022-10-05T11:38:14.184Z,1000.07
2022-10-05T11:39:14.161Z,999.99
2022-10-05T11:40:14.200Z,1000.02
2022-10-05T11:41:14.134Z,999.99
2022-10-05T11:42:14.121Z,999.99
2022-10-05T11:43:14.146Z,999.97
2022-10-05T11:44:14.102Z,1000.03
2022-10-05T11:45:14.102Z,999.87
2022-10-05T11:46:14.133Z,999.94
2022-10-05T11:47:14.084Z,999.92
2022-10-05T11:48:14.102Z,999.92
2022-10-05T11:49:14.094Z,999.83
2022-10-05T11:50:14.117Z,999.90
2022-10-05T11:51:14.078Z,999.93
2022-10-05T11:52:14.089Z,999.84
2022-10-05T11:53:14.068Z,999.79
2022-10-05T11:54:14.030Z,999.74
2022-10-05T11:55:14.023Z,999.76
2022-10-05T11:56:14.008Z,999.80
2022-10-05T11:57:14.062Z,999.69
2022-10-05T11:58:14.038Z,999.71
2022-10-05T11:59:14.029Z,999.65
2022-10-05T12:00:14.082Z,999.56
2022-10-05T12:01:14.027Z,999.71
2022-10-05T12:02:14.002Z,999.67
2022-10-05T12:03:15.091Z,999.65
2022-10-05T12:04:13.974Z,999.59
2022-10-05T12:05:13.939Z,999.52
2022-10-05T12:06:13.926Z,999.58
2022-10-05T12:07:13.925Z,999.54
2022-10-05T12:08:13.949Z,999.58
2022-10-05T12:09:13.926Z,999.53